Moreno Valley, California
Current Conditions -  °F | °C
As of 12:58 AM on Wednesday 22 Oct 2014 (Local Time) from KRIV Reporting Station
Clear Clear  
Wind Chill: 56°   Ceiling: Unl
Heat Index: 56°   Visibility: 10mi
Dew Point: 52°   Wind: 0mph
Humidity: 87%   Direction: NA
Pressure: 29.92"   Gusts: NA
Location:  33.92°N, 117.26°W
Report Text: KRIV 220758Z AUTO 00000KT 10SM CLR 13/11 A2992 RMK AO2 SLP122 T01310109 402680124
Loading
Personal Weather Stations






























Interactive Weather Map
Tropical Storm Tracking
New forecast layout! Learn more

10-Day Weather Forecast

Advertisements
Track Severe Weather on mobile